createdAt,value
2019-04-26T00:01:27.304Z,1.92
2019-04-26T00:03:55.509Z,1.30
2019-04-26T00:06:24.076Z,1.75
2019-04-26T00:08:53.925Z,0.80
2019-04-26T00:11:30.203Z,2.00
2019-04-26T00:14:05.832Z,1.75
2019-04-26T00:16:35.706Z,1.90
2019-04-26T00:19:03.932Z,1.30
2019-04-26T00:21:32.418Z,1.90
2019-04-26T00:24:01.004Z,1.45
2019-04-26T00:26:29.771Z,1.05
2019-04-26T00:28:57.997Z,1.70
2019-04-26T00:31:26.209Z,1.92
2019-04-26T00:33:54.412Z,2.50
2019-04-26T00:36:22.919Z,1.37
2019-04-26T00:38:51.224Z,3.17
2019-04-26T00:41:20.530Z,1.60
2019-04-26T00:43:49.533Z,1.42
2019-04-26T00:46:18.855Z,2.35
2019-04-26T00:48:47.180Z,1.80
2019-04-26T00:51:15.407Z,1.52
2019-04-26T00:53:43.625Z,1.27
2019-04-26T00:56:11.841Z,1.92
2019-04-26T00:58:40.324Z,1.12
2019-04-26T01:01:08.552Z,2.33
2019-04-26T01:03:36.776Z,8.38
2019-04-26T01:06:06.628Z,2.08
2019-04-26T01:08:34.865Z,2.03
2019-04-26T01:11:03.094Z,1.52
2019-04-26T01:13:31.368Z,1.30
2019-04-26T01:15:59.578Z,1.85
2019-04-26T01:18:27.785Z,1.20
2019-04-26T01:20:55.990Z,1.20
2019-04-26T01:23:25.070Z,4.45
2019-04-26T01:25:56.643Z,5.30
2019-04-26T01:28:28.128Z,2.33
2019-04-26T01:30:56.325Z,1.47
2019-04-26T01:33:24.541Z,1.60
2019-04-26T01:35:52.768Z,1.37
2019-04-26T01:38:21.810Z,2.30
2019-04-26T01:40:51.824Z,2.65
2019-04-26T01:43:22.628Z,1.33
2019-04-26T01:45:52.672Z,3.20
2019-04-26T01:48:46.187Z,4.08
2019-04-26T01:51:21.745Z,1.85
2019-04-26T01:53:50.822Z,3.25
2019-04-26T01:56:21.810Z,2.40
2019-04-26T01:58:50.369Z,1.70
2019-04-26T02:01:21.091Z,3.72
2019-04-26T02:03:50.160Z,3.12
2019-04-26T02:06:25.341Z,3.05
2019-04-26T02:08:48.304Z,2.12
2019-04-26T02:11:16.510Z,3.35
2019-04-26T02:13:44.990Z,1.95
2019-04-26T02:16:13.201Z,3.30
2019-04-26T02:18:41.479Z,1.65
2019-04-26T02:21:17.092Z,2.05
2019-04-26T02:23:46.941Z,1.87
2019-04-26T02:26:33.170Z,3.33
2019-04-26T02:29:10.656Z,2.27
2019-04-26T02:31:38.874Z,2.25
2019-04-26T02:34:07.081Z,3.05
2019-04-26T02:36:53.007Z,2.80
2019-04-26T02:39:11.313Z,4.40
2019-04-26T02:41:39.630Z,2.05
2019-04-26T02:44:10.693Z,2.30
2019-04-26T02:46:40.558Z,4.30
2019-04-26T02:49:13.489Z,2.60
2019-04-26T02:52:01.519Z,2.45
2019-04-26T02:54:44.649Z,2.70
2019-04-26T02:57:22.257Z,3.92
2019-04-26T02:59:50.466Z,2.37
2019-04-26T03:02:22.590Z,3.98
2019-04-26T03:04:50.849Z,1.98
2019-04-26T03:07:22.332Z,1.95
2019-04-26T03:09:50.615Z,2.77
2019-04-26T03:12:18.835Z,2.62
2019-04-26T03:15:13.882Z,2.45
2019-04-26T03:17:46.503Z,2.37
2019-04-26T03:20:20.043Z,2.27
2019-04-26T03:23:00.289Z,2.83
2019-04-26T03:25:33.310Z,3.85
2019-04-26T03:28:13.816Z,2.45
2019-04-26T03:31:03.108Z,2.42
2019-04-26T03:33:55.104Z,3.80
2019-04-26T03:36:39.114Z,2.52
2019-04-26T03:39:10.006Z,2.42
2019-04-26T03:41:51.436Z,3.25
2019-04-26T03:44:25.826Z,2.65
2019-04-26T03:46:56.805Z,2.52
2019-04-26T03:49:55.719Z,4.28
2019-04-26T03:52:54.032Z,2.35
2019-04-26T03:55:30.040Z,3.75
2019-04-26T03:58:17.773Z,3.40
2019-04-26T04:00:47.647Z,2.70
2019-04-26T04:03:26.589Z,4.87
2019-04-26T04:05:56.297Z,4.90
2019-04-26T04:08:40.858Z,2.95
2019-04-26T04:11:12.408Z,3.17
2019-04-26T04:13:51.439Z,2.98
2019-04-26T04:16:47.368Z,2.77
2019-04-26T04:19:58.808Z,3.12
2019-04-26T04:22:35.752Z,3.58
2019-04-26T04:25:14.753Z,6.80
2019-04-26T04:27:51.607Z,5.47
2019-04-26T04:30:38.676Z,4.40
2019-04-26T04:33:38.020Z,3.67
2019-04-26T04:36:09.473Z,4.10
2019-04-26T04:38:53.492Z,3.50
2019-04-26T04:41:53.347Z,5.92
2019-04-26T04:44:38.519Z,7.28
2019-04-26T04:47:24.150Z,4.78
2019-04-26T04:50:00.537Z,4.35
2019-04-26T04:52:48.170Z,4.95
2019-04-26T04:55:22.540Z,6.50
2019-04-26T04:58:06.020Z,5.78
2019-04-26T05:00:41.802Z,4.35
2019-04-26T05:03:27.117Z,4.87
2019-04-26T05:06:07.286Z,5.70
2019-04-26T05:08:53.110Z,5.80
2019-04-26T05:11:28.247Z,4.78
2019-04-26T05:14:23.758Z,4.17
2019-04-26T05:17:23.533Z,4.70
2019-04-26T05:20:04.268Z,4.67
2019-04-26T05:25:59.336Z,4.85
2019-04-26T05:28:37.725Z,6.17
2019-04-26T05:31:27.668Z,4.60
2019-04-26T05:34:00.114Z,4.00
2019-04-26T05:36:51.354Z,6.85
2019-04-26T05:39:25.117Z,5.87
2019-04-26T05:42:10.393Z,4.58
2019-04-26T05:45:05.969Z,4.42
2019-04-26T05:47:41.172Z,6.30
2019-04-26T05:50:49.181Z,6.28
2019-04-26T05:53:57.151Z,7.70
2019-04-26T05:57:09.041Z,4.58
2019-04-26T05:59:46.286Z,7.17
2019-04-26T06:02:46.091Z,5.28
2019-04-26T06:05:45.314Z,4.33
2019-04-26T06:08:31.058Z,6.10
2019-04-26T06:10:55.893Z,6.25
2019-04-26T06:13:55.794Z,4.20
2019-04-26T06:16:38.083Z,4.92
2019-04-26T06:19:36.028Z,4.37
2019-04-26T06:22:31.724Z,4.42
2019-04-26T06:25:13.926Z,5.53
2019-04-26T06:28:03.415Z,4.87
2019-04-26T06:30:45.262Z,6.03
2019-04-26T06:33:22.975Z,5.05
2019-04-26T06:35:51.751Z,4.85
2019-04-26T06:38:44.020Z,4.20
2019-04-26T06:41:25.140Z,5.37
2019-04-26T06:46:47.559Z,6.37
2019-04-26T06:49:37.860Z,6.40
2019-04-26T06:52:11.535Z,6.25
2019-04-26T06:54:48.536Z,5.78
2019-04-26T06:57:30.032Z,6.95
2019-04-26T07:00:08.754Z,5.30
2019-04-26T07:03:01.045Z,5.33
2019-04-26T07:05:32.492Z,6.10
2019-04-26T07:08:21.761Z,5.70
2019-04-26T07:11:29.724Z,5.53
2019-04-26T07:14:19.548Z,8.35
2019-04-26T07:17:00.640Z,7.35
2019-04-26T07:19:52.850Z,6.00
2019-04-26T07:22:42.173Z,7.25
2019-04-26T07:25:35.232Z,8.28
2019-04-26T07:28:18.541Z,7.47
2019-04-26T07:31:14.239Z,6.37
2019-04-26T07:34:03.431Z,6.95
2019-04-26T07:36:52.726Z,8.93
2019-04-26T07:39:31.690Z,7.17
2019-04-26T07:42:39.603Z,6.60
2019-04-26T07:45:15.573Z,6.72
2019-04-26T07:48:19.259Z,8.00
2019-04-26T07:51:11.833Z,9.70
2019-04-26T07:53:43.320Z,8.45
2019-04-26T07:56:23.904Z,9.38
2019-04-26T07:59:28.921Z,8.48
2019-04-26T08:02:06.835Z,10.82
2019-04-26T08:04:41.096Z,9.73
2019-04-26T08:07:21.115Z,12.53
2019-04-26T08:09:59.675Z,12.35
2019-04-26T08:12:29.561Z,12.00
2019-04-26T08:15:06.089Z,13.18
2019-04-26T08:17:44.738Z,16.60
2019-04-26T08:20:23.384Z,13.68
2019-04-26T08:22:54.852Z,18.70
2019-04-26T08:25:23.068Z,17.00
2019-04-26T08:27:51.576Z,19.85
2019-04-26T08:30:22.676Z,14.58
2019-04-26T08:32:57.688Z,15.08
2019-04-26T08:35:27.907Z,15.88
2019-04-26T08:37:57.465Z,17.12
2019-04-26T08:40:31.048Z,17.12
2019-04-26T08:42:58.661Z,18.45
2019-04-26T08:45:31.716Z,13.03
2019-04-26T08:48:04.461Z,16.55
2019-04-26T08:50:34.332Z,19.50
2019-04-26T08:53:02.540Z,15.70
2019-04-26T08:55:30.768Z,15.83
2019-04-26T08:58:01.831Z,15.53
2019-04-26T09:00:37.452Z,12.98
2019-04-26T09:03:13.468Z,20.25
2019-04-26T09:05:59.980Z,14.90
2019-04-26T09:08:31.609Z,15.25
2019-04-26T09:11:00.468Z,10.43
2019-04-26T09:13:31.949Z,11.70
2019-04-26T09:16:08.036Z,10.88
2019-04-26T09:18:42.955Z,11.97
2019-04-26T09:21:06.228Z,10.88
2019-04-26T09:23:52.468Z,10.60
2019-04-26T09:26:42.586Z,10.75
2019-04-26T09:29:10.224Z,11.90
2019-04-26T09:31:56.342Z,17.90
2019-04-26T09:34:29.153Z,9.48
2019-04-26T09:36:57.392Z,11.12
2019-04-26T09:39:25.616Z,13.62
2019-04-26T09:41:55.472Z,12.78
2019-04-26T09:44:41.469Z,13.60
2019-04-26T09:47:13.293Z,12.37
2019-04-26T09:49:46.763Z,12.25
2019-04-26T09:52:28.656Z,12.33
2019-04-26T09:54:56.933Z,12.95
2019-04-26T09:57:25.140Z,11.90
2019-04-26T09:59:53.361Z,16.15
2019-04-26T10:02:21.608Z,12.45
2019-04-26T10:04:49.813Z,11.15
2019-04-26T10:07:18.024Z,10.78
2019-04-26T10:09:46.247Z,13.65
2019-04-26T10:12:21.936Z,10.55
2019-04-26T10:14:57.600Z,13.18
2019-04-26T10:17:30.282Z,15.68
2019-04-26T10:19:58.520Z,11.08
2019-04-26T10:22:28.450Z,14.13
2019-04-26T10:24:56.660Z,11.65
2019-04-26T10:27:24.912Z,11.95
2019-04-26T10:29:55.734Z,11.78
2019-04-26T10:32:26.406Z,10.93
2019-04-26T10:34:53.026Z,17.50
2019-04-26T10:37:21.238Z,12.18
2019-04-26T10:39:49.461Z,9.45
2019-04-26T10:42:18.062Z,14.40
2019-04-26T10:44:46.288Z,12.07
2019-04-26T10:47:16.751Z,9.20
2019-04-26T10:49:46.437Z,12.47
2019-04-26T10:52:17.025Z,12.27
2019-04-26T10:57:38.424Z,7.45
2019-04-26T11:00:09.001Z,11.20
2019-04-26T11:02:37.201Z,10.68
2019-04-26T11:05:06.737Z,8.78
2019-04-26T11:07:35.042Z,11.18
2019-04-26T11:10:04.798Z,9.40
2019-04-26T11:12:33.014Z,9.80
2019-04-26T11:15:01.228Z,7.83
2019-04-26T11:17:34.488Z,10.95
2019-04-26T11:20:06.220Z,6.67
2019-04-26T11:22:37.606Z,7.95
2019-04-26T11:25:05.160Z,10.20
2019-04-26T11:27:33.376Z,8.63
2019-04-26T11:30:11.111Z,7.10
2019-04-26T11:32:33.213Z,9.30
2019-04-26T11:35:01.532Z,10.68
2019-04-26T11:37:29.754Z,8.73
2019-04-26T11:39:58.096Z,6.67
2019-04-26T11:42:26.897Z,9.48
2019-04-26T11:45:05.629Z,6.87
2019-04-26T11:47:25.101Z,8.65
2019-04-26T11:49:53.344Z,9.95
2019-04-26T11:52:21.526Z,8.98
2019-04-26T11:54:51.186Z,9.28
2019-04-26T11:57:19.704Z,6.83
2019-04-26T11:59:48.014Z,7.92
2019-04-26T12:02:17.247Z,6.90
2019-04-26T12:05:03.373Z,9.55
2019-04-26T12:07:39.255Z,6.15
2019-04-26T12:10:11.379Z,7.47
2019-04-26T12:12:43.072Z,9.60
2019-04-26T12:15:10.221Z,7.37
2019-04-26T12:17:38.601Z,7.35
2019-04-26T12:20:06.841Z,7.90
2019-04-26T12:22:35.153Z,6.72
2019-04-26T12:25:07.080Z,8.90
2019-04-26T12:27:33.868Z,6.58
2019-04-26T12:30:02.146Z,13.38
2019-04-26T12:32:30.352Z,5.62
2019-04-26T12:34:58.572Z,11.63
2019-04-26T12:37:26.796Z,9.45
2019-04-26T12:39:54.997Z,8.03
2019-04-26T12:42:23.300Z,11.93
2019-04-26T12:45:12.297Z,6.28
2019-04-26T12:47:55.326Z,9.05
2019-04-26T12:50:23.764Z,9.38
2019-04-26T12:52:55.609Z,8.58
2019-04-26T12:55:22.492Z,7.90
2019-04-26T12:57:50.707Z,6.80
2019-04-26T13:00:21.319Z,7.25
2019-04-26T13:02:50.178Z,7.50
2019-04-26T13:05:20.582Z,7.30
2019-04-26T13:07:53.432Z,10.23
2019-04-26T13:10:26.404Z,10.63
2019-04-26T13:12:56.252Z,7.30
2019-04-26T13:16:00.870Z,9.03
2019-04-26T13:18:30.432Z,7.05
2019-04-26T13:21:02.825Z,6.87
2019-04-26T13:23:29.906Z,8.30
2019-04-26T13:25:59.663Z,9.05
2019-04-26T13:28:28.549Z,8.50
2019-04-26T13:31:02.273Z,13.80
2019-04-26T13:33:27.520Z,7.35
2019-04-26T13:36:04.114Z,12.98
2019-04-26T13:38:26.862Z,6.30
2019-04-26T13:40:55.127Z,6.60
2019-04-26T13:43:27.098Z,9.55
2019-04-26T13:46:00.785Z,11.53
2019-04-26T13:48:33.590Z,6.33
2019-04-26T13:51:05.697Z,7.60
2019-04-26T13:53:33.450Z,9.88
2019-04-26T13:56:02.277Z,10.93
2019-04-26T13:58:31.746Z,9.80
2019-04-26T14:01:00.040Z,7.28
2019-04-26T14:03:31.700Z,7.75
2019-04-26T14:05:58.264Z,10.85
2019-04-26T14:08:26.478Z,12.05
2019-04-26T14:10:56.593Z,8.25
2019-04-26T14:13:26.041Z,9.18
2019-04-26T14:15:54.392Z,8.68
2019-04-26T14:18:22.647Z,8.68
2019-04-26T14:20:54.877Z,6.60
2019-04-26T14:23:34.548Z,8.68
2019-04-26T14:26:13.432Z,6.47
2019-04-26T14:28:42.293Z,9.03
2019-04-26T14:31:12.337Z,7.35
2019-04-26T14:33:40.420Z,7.15
2019-04-26T14:36:17.680Z,10.72
2019-04-26T14:38:40.195Z,8.00
2019-04-26T14:41:08.642Z,5.95
2019-04-26T14:43:41.156Z,6.65
2019-04-26T14:46:10.515Z,4.97
2019-04-26T14:48:40.478Z,5.58
2019-04-26T14:51:08.078Z,4.90
2019-04-26T14:53:38.025Z,4.70
2019-04-26T14:56:06.283Z,7.87
2019-04-26T14:58:34.584Z,5.37
2019-04-26T15:01:04.449Z,7.70
2019-04-26T15:03:34.300Z,9.95
2019-04-26T15:06:22.202Z,6.03
2019-04-26T15:08:50.588Z,6.95
2019-04-26T15:11:18.892Z,6.40
2019-04-26T15:13:47.103Z,10.10
2019-04-26T15:16:15.308Z,7.95
2019-04-26T15:18:43.538Z,9.65
2019-04-26T15:21:12.872Z,5.60
2019-04-26T15:23:41.359Z,6.65
2019-04-26T15:26:09.569Z,9.05
2019-04-26T15:28:37.836Z,10.70
2019-04-26T15:31:06.160Z,10.00
2019-04-26T15:33:35.880Z,8.38
2019-04-26T15:36:06.352Z,7.80
2019-04-26T15:38:41.565Z,8.98
2019-04-26T15:41:14.251Z,12.03
2019-04-26T15:43:46.855Z,11.00
2019-04-26T15:46:31.768Z,10.43
2019-04-26T15:49:12.549Z,10.45
2019-04-26T15:51:42.680Z,8.73
2019-04-26T15:54:11.109Z,8.48
2019-04-26T15:56:39.297Z,11.33
2019-04-26T15:59:07.513Z,7.75
2019-04-26T16:01:35.728Z,8.25
2019-04-26T16:04:06.252Z,9.63
2019-04-26T16:06:37.368Z,5.40
2019-04-26T16:09:06.367Z,8.03
2019-04-26T16:11:34.600Z,5.97
2019-04-26T16:14:02.814Z,4.72
2019-04-26T16:16:33.018Z,5.33
2019-04-26T16:19:00.960Z,6.15
2019-04-26T16:21:29.144Z,8.08
2019-04-26T16:23:57.361Z,6.50
2019-04-26T16:26:28.708Z,6.70
2019-04-26T16:29:04.681Z,7.95
2019-04-26T16:31:42.090Z,6.50
2019-04-26T16:34:14.258Z,12.43
2019-04-26T16:36:45.311Z,9.50
2019-04-26T16:39:13.169Z,6.80
2019-04-26T16:41:42.097Z,11.95
2019-04-26T16:44:10.448Z,10.65
2019-04-26T16:46:38.675Z,8.33
2019-04-26T16:49:11.424Z,6.65
2019-04-26T16:51:36.839Z,8.13
2019-04-26T16:54:10.075Z,8.25
2019-04-26T16:56:36.025Z,7.95
2019-04-26T16:59:04.440Z,8.63
2019-04-26T17:01:33.392Z,6.22
2019-04-26T17:04:04.077Z,7.17
2019-04-26T17:06:31.749Z,9.63
2019-04-26T17:09:04.501Z,6.87
2019-04-26T17:11:30.230Z,5.28
2019-04-26T17:14:04.363Z,8.38
2019-04-26T17:16:33.968Z,10.28
2019-04-26T17:19:00.738Z,10.05
2019-04-26T17:21:30.638Z,12.68
2019-04-26T17:24:18.873Z,14.93
2019-04-26T17:26:48.718Z,17.12
2019-04-26T17:29:19.903Z,13.75
2019-04-26T17:31:48.124Z,11.05
2019-04-26T17:34:16.344Z,11.03
2019-04-26T17:36:46.504Z,15.65
2019-04-26T17:39:17.364Z,9.88
2019-04-26T17:41:50.744Z,9.60
2019-04-26T17:44:14.528Z,12.10
2019-04-26T17:46:42.735Z,10.58
2019-04-26T17:49:11.192Z,12.28
2019-04-26T17:51:43.615Z,10.78
2019-04-26T17:54:32.300Z,11.65
2019-04-26T17:56:41.727Z,12.05
2019-04-26T17:59:13.719Z,15.23
2019-04-26T18:01:45.581Z,15.55
2019-04-26T18:04:11.130Z,16.60
2019-04-26T18:06:40.341Z,14.80
2019-04-26T18:09:08.709Z,16.55
2019-04-26T18:11:37.010Z,16.97
2019-04-26T18:14:06.977Z,19.92
2019-04-26T18:16:36.897Z,21.57
2019-04-26T18:19:24.721Z,23.07
2019-04-26T18:21:59.582Z,21.55
2019-04-26T18:24:27.698Z,21.97
2019-04-26T18:26:59.538Z,22.52
2019-04-26T18:29:29.294Z,22.95
2019-04-26T18:31:54.837Z,24.60
2019-04-26T18:34:23.229Z,24.50
2019-04-26T18:36:53.097Z,26.15
2019-04-26T18:39:22.891Z,27.67
2019-04-26T18:41:51.363Z,27.65
2019-04-26T18:44:19.563Z,27.90
2019-04-26T18:46:53.586Z,27.90
2019-04-26T18:49:24.617Z,31.65
2019-04-26T18:51:52.016Z,32.75
2019-04-26T18:54:37.207Z,26.20
2019-04-26T18:57:05.508Z,30.37
2019-04-26T18:59:34.209Z,26.12
2019-04-26T19:02:03.949Z,30.60
2019-04-26T19:04:33.578Z,34.60
2019-04-26T19:07:01.977Z,34.60
2019-04-26T19:09:31.094Z,32.65
2019-04-26T19:12:01.610Z,35.48
2019-04-26T19:14:48.843Z,38.90
2019-04-26T19:17:15.108Z,39.63
2019-04-26T19:19:47.539Z,40.45
2019-04-26T19:22:17.097Z,43.70
2019-04-26T19:24:49.295Z,37.78
2019-04-26T19:27:15.629Z,47.75
2019-04-26T19:29:43.845Z,47.73
2019-04-26T19:32:12.062Z,49.73
2019-04-26T19:34:41.979Z,55.12
2019-04-26T19:37:10.204Z,47.08
2019-04-26T19:39:38.415Z,55.03
2019-04-26T19:42:06.625Z,48.60
2019-04-26T19:44:34.849Z,49.85
2019-04-26T19:47:06.616Z,50.35
2019-04-26T19:49:42.185Z,53.50
2019-04-26T19:52:12.050Z,49.13
2019-04-26T19:54:44.605Z,53.50
2019-04-26T19:57:14.446Z,48.63
2019-04-26T19:59:42.665Z,47.05
2019-04-26T20:02:12.733Z,57.93
2019-04-26T20:04:41.921Z,56.70
2019-04-26T20:07:10.252Z,50.85
2019-04-26T20:09:38.465Z,47.50
2019-04-26T20:12:06.782Z,42.35
2019-04-26T20:14:45.058Z,55.60
2019-04-26T20:17:05.039Z,55.20
2019-04-26T20:19:37.290Z,53.55
2019-04-26T20:22:03.632Z,62.33
2019-04-26T20:24:31.972Z,64.72
2019-04-26T20:27:01.497Z,59.35
2019-04-26T20:29:30.131Z,61.40
2019-04-26T20:32:09.127Z,53.20
2019-04-26T20:34:37.344Z,56.70
2019-04-26T20:37:05.585Z,59.48
2019-04-26T20:39:33.885Z,51.90
2019-04-26T20:42:04.058Z,49.33
2019-04-26T20:44:48.233Z,50.15
2019-04-26T20:47:03.374Z,84.72
2019-04-26T20:49:32.184Z,55.92
2019-04-26T20:52:01.905Z,54.50
2019-04-26T20:54:31.593Z,47.17
2019-04-26T20:57:01.779Z,46.48
2019-04-26T20:59:29.897Z,42.05
2019-04-26T21:02:07.332Z,36.48
2019-04-26T21:04:36.819Z,40.70
2019-04-26T21:06:58.079Z,41.68
2019-04-26T21:09:26.748Z,40.90
2019-04-26T21:11:54.972Z,41.50
2019-04-26T21:14:23.188Z,45.03
2019-04-26T21:16:51.403Z,43.58
2019-04-26T21:19:20.285Z,41.00
2019-04-26T21:21:50.065Z,41.60
2019-04-26T21:24:21.396Z,42.30
2019-04-26T21:26:54.356Z,41.60
2019-04-26T21:29:34.600Z,40.75
2019-04-26T21:32:20.283Z,36.70
2019-04-26T21:34:50.715Z,48.50
2019-04-26T21:37:25.431Z,42.58
2019-04-26T21:40:11.347Z,44.93
2019-04-26T21:42:41.434Z,44.90
2019-04-26T21:45:09.596Z,47.27
2019-04-26T21:47:37.805Z,51.37
2019-04-26T21:50:06.684Z,49.27
2019-04-26T21:52:34.884Z,49.20
2019-04-26T21:55:04.618Z,49.88
2019-04-26T21:57:34.860Z,45.12
2019-04-26T22:00:04.284Z,45.15
2019-04-26T22:02:34.957Z,44.40
2019-04-26T22:05:03.535Z,43.42
2019-04-26T22:07:32.813Z,50.63
2019-04-26T22:10:05.218Z,46.37
2019-04-26T22:12:33.368Z,46.08
2019-04-26T22:15:08.935Z,44.83
2019-04-26T22:17:41.752Z,43.33
2019-04-26T22:20:15.643Z,50.45
2019-04-26T22:22:49.248Z,42.40
2019-04-26T22:25:19.349Z,46.13
2019-04-26T22:27:47.556Z,45.28
2019-04-26T22:30:17.669Z,46.18
2019-04-26T22:32:48.414Z,42.95
2019-04-26T22:35:20.223Z,43.83
2019-04-26T22:37:48.084Z,49.58
2019-04-26T22:40:19.558Z,47.03
2019-04-26T22:42:47.713Z,51.80
2019-04-26T22:45:17.572Z,51.37
2019-04-26T22:47:47.454Z,52.08
2019-04-26T22:50:20.725Z,58.87
2019-04-26T22:52:51.300Z,55.65
2019-04-26T22:55:22.109Z,51.73
2019-04-26T22:57:49.589Z,47.98
2019-04-26T23:00:15.506Z,52.83
2019-04-26T23:02:45.607Z,53.80
2019-04-26T23:05:13.891Z,48.48
2019-04-26T23:07:42.456Z,43.87
2019-04-26T23:10:11.159Z,48.45
2019-04-26T23:12:44.080Z,50.85
2019-04-26T23:15:23.963Z,50.90
2019-04-26T23:18:03.638Z,51.73
2019-04-26T23:20:37.737Z,49.38
2019-04-26T23:23:08.473Z,54.53
2019-04-26T23:25:35.768Z,56.80
2019-04-26T23:28:03.997Z,57.50
2019-04-26T23:30:32.629Z,55.12
2019-04-26T23:33:00.945Z,54.50
2019-04-26T23:35:29.156Z,55.78
2019-04-26T23:38:00.846Z,58.83
2019-04-26T23:40:28.936Z,60.67
2019-04-26T23:42:57.333Z,58.75
2019-04-26T23:45:25.547Z,73.52
2019-04-26T23:47:53.808Z,62.20
2019-04-26T23:50:25.514Z,59.25
2019-04-26T23:52:53.060Z,57.73
2019-04-26T23:55:21.495Z,77.97
2019-04-26T23:57:49.710Z,67.85
